sensor_id;sensor_type;location;lat;lon;timestamp;temperature;humidity
40600;DHT22;26309;50.924;4.754;2023-10-19T00:00:57;17.10;99.90
40600;DHT22;26309;50.924;4.754;2023-10-19T00:03:25;17.20;99.90
40600;DHT22;26309;50.924;4.754;2023-10-19T00:05:52;17.20;99.90
40600;DHT22;26309;50.924;4.754;2023-10-19T00:08:20;17.20;99.90
40600;DHT22;26309;50.924;4.754;2023-10-19T00:11:08;17.30;99.90
40600;DHT22;26309;50.924;4.754;2023-10-19T00:13:35;17.30;99.90
40600;DHT22;26309;50.924;4.754;2023-10-19T00:16:01;17.40;99.90
40600;DHT22;26309;50.924;4.754;2023-10-19T00:18:33;17.20;99.90
40600;DHT22;26309;50.924;4.754;2023-10-19T00:21:00;17.30;99.90
40600;DHT22;26309;50.924;4.754;2023-10-19T00:23:37;17.30;99.90
40600;DHT22;26309;50.924;4.754;2023-10-19T00:26:05;17.30;99.90
40600;DHT22;26309;50.924;4.754;2023-10-19T00:28:35;17.20;99.90
40600;DHT22;26309;50.924;4.754;2023-10-19T00:31:04;17.20;99.90
40600;DHT22;26309;50.924;4.754;2023-10-19T00:33:34;17.20;99.90
40600;DHT22;26309;50.924;4.754;2023-10-19T00:36:05;17.20;99.90
40600;DHT22;26309;50.924;4.754;2023-10-19T00:38:38;17.20;99.90
40600;DHT22;26309;50.924;4.754;2023-10-19T00:41:10;17.20;99.90
40600;DHT22;26309;50.924;4.754;2023-10-19T00:43:39;17.40;99.90
40600;DHT22;26309;50.924;4.754;2023-10-19T00:46:13;17.40;99.90
40600;DHT22;26309;50.924;4.754;2023-10-19T00:48:56;17.40;99.90
40600;DHT22;26309;50.924;4.754;2023-10-19T00:51:52;17.30;99.90
40600;DHT22;26309;50.924;4.754;2023-10-19T00:54:29;17.30;99.90
40600;DHT22;26309;50.924;4.754;2023-10-19T00:57:02;17.30;99.90
40600;DHT22;26309;50.924;4.754;2023-10-19T00:59:40;17.30;99.90
40600;DHT22;26309;50.924;4.754;2023-10-19T01:02:14;17.30;99.90
40600;DHT22;26309;50.924;4.754;2023-10-19T01:04:44;17.30;99.90
40600;DHT22;26309;50.924;4.754;2023-10-19T01:07:12;17.20;99.90
40600;DHT22;26309;50.924;4.754;2023-10-19T01:09:42;17.10;99.90
40600;DHT22;26309;50.924;4.754;2023-10-19T01:12:10;17.20;99.90
40600;DHT22;26309;50.924;4.754;2023-10-19T01:15:05;17.40;99.90
40600;DHT22;26309;50.924;4.754;2023-10-19T01:17:46;17.20;99.90
40600;DHT22;26309;50.924;4.754;2023-10-19T01:20:13;17.20;99.90
40600;DHT22;26309;50.924;4.754;2023-10-19T01:25:20;17.30;99.90
40600;DHT22;26309;50.924;4.754;2023-10-19T01:27:59;17.30;99.90
40600;DHT22;26309;50.924;4.754;2023-10-19T01:30:26;17.20;99.90
40600;DHT22;26309;50.924;4.754;2023-10-19T01:32:53;17.20;99.90
40600;DHT22;26309;50.924;4.754;2023-10-19T01:35:18;17.20;99.90
40600;DHT22;26309;50.924;4.754;2023-10-19T01:37:44;17.30;99.90
40600;DHT22;26309;50.924;4.754;2023-10-19T01:40:10;17.20;99.90
40600;DHT22;26309;50.924;4.754;2023-10-19T01:42:41;17.30;99.90
40600;DHT22;26309;50.924;4.754;2023-10-19T01:45:07;17.30;99.90
40600;DHT22;26309;50.924;4.754;2023-10-19T01:47:37;17.30;99.90
40600;DHT22;26309;50.924;4.754;2023-10-19T01:50:06;17.40;99.90
40600;DHT22;26309;50.924;4.754;2023-10-19T01:52:33;17.40;99.90
40600;DHT22;26309;50.924;4.754;2023-10-19T01:54:59;17.30;99.90
40600;DHT22;26309;50.924;4.754;2023-10-19T01:57:33;17.30;99.90
40600;DHT22;26309;50.924;4.754;2023-10-19T02:00:00;17.30;99.90
40600;DHT22;26309;50.924;4.754;2023-10-19T02:02:35;17.40;99.90
40600;DHT22;26309;50.924;4.754;2023-10-19T02:05:01;17.30;99.90
40600;DHT22;26309;50.924;4.754;2023-10-19T02:07:30;17.30;99.90
40600;DHT22;26309;50.924;4.754;2023-10-19T02:09:56;17.30;99.90
40600;DHT22;26309;50.924;4.754;2023-10-19T02:12:22;17.30;99.90
40600;DHT22;26309;50.924;4.754;2023-10-19T02:14:48;17.30;99.90
40600;DHT22;26309;50.924;4.754;2023-10-19T02:17:14;17.40;99.90
40600;DHT22;26309;50.924;4.754;2023-10-19T02:19:40;17.30;99.90
40600;DHT22;26309;50.924;4.754;2023-10-19T02:22:06;17.30;99.90
40600;DHT22;26309;50.924;4.754;2023-10-19T02:24:34;17.30;99.90
40600;DHT22;26309;50.924;4.754;2023-10-19T02:27:00;17.10;99.90
40600;DHT22;26309;50.924;4.754;2023-10-19T02:29:28;17.30;99.90
40600;DHT22;26309;50.924;4.754;2023-10-19T02:31:54;17.20;99.90
40600;DHT22;26309;50.924;4.754;2023-10-19T02:34:24;17.10;99.90
40600;DHT22;26309;50.924;4.754;2023-10-19T02:36:50;17.10;99.90
40600;DHT22;26309;50.924;4.754;2023-10-19T02:39:16;17.00;99.90
40600;DHT22;26309;50.924;4.754;2023-10-19T02:41:47;17.00;99.90
40600;DHT22;26309;50.924;4.754;2023-10-19T02:44:15;16.90;99.90
40600;DHT22;26309;50.924;4.754;2023-10-19T02:46:50;16.90;99.90
40600;DHT22;26309;50.924;4.754;2023-10-19T02:49:19;16.80;99.90
40600;DHT22;26309;50.924;4.754;2023-10-19T02:51:47;16.80;99.90
40600;DHT22;26309;50.924;4.754;2023-10-19T02:54:14;16.70;99.90
40600;DHT22;26309;50.924;4.754;2023-10-19T02:56:49;16.70;99.90
40600;DHT22;26309;50.924;4.754;2023-10-19T02:59:16;16.70;99.90
40600;DHT22;26309;50.924;4.754;2023-10-19T03:01:42;16.70;99.90
40600;DHT22;26309;50.924;4.754;2023-10-19T03:04:15;16.60;99.90
40600;DHT22;26309;50.924;4.754;2023-10-19T03:06:41;16.50;99.90
40600;DHT22;26309;50.924;4.754;2023-10-19T03:09:08;16.50;99.90
40600;DHT22;26309;50.924;4.754;2023-10-19T03:11:52;16.60;99.90
40600;DHT22;26309;50.924;4.754;2023-10-19T03:14:19;16.60;99.90
40600;DHT22;26309;50.924;4.754;2023-10-19T03:16:45;16.50;99.90
40600;DHT22;26309;50.924;4.754;2023-10-19T03:19:11;16.40;99.90
40600;DHT22;26309;50.924;4.754;2023-10-19T03:21:39;16.30;99.90
40600;DHT22;26309;50.924;4.754;2023-10-19T03:24:09;16.30;99.90
40600;DHT22;26309;50.924;4.754;2023-10-19T03:26:41;16.20;99.90
40600;DHT22;26309;50.924;4.754;2023-10-19T03:29:14;16.10;99.90
40600;DHT22;26309;50.924;4.754;2023-10-19T03:31:41;16.10;99.90
40600;DHT22;26309;50.924;4.754;2023-10-19T03:34:12;16.10;99.90
40600;DHT22;26309;50.924;4.754;2023-10-19T03:36:44;16.00;99.90
40600;DHT22;26309;50.924;4.754;2023-10-19T03:39:10;15.90;99.90
40600;DHT22;26309;50.924;4.754;2023-10-19T03:41:44;15.90;99.90
40600;DHT22;26309;50.924;4.754;2023-10-19T03:44:11;15.90;99.90
40600;DHT22;26309;50.924;4.754;2023-10-19T03:46:45;16.00;99.90
40600;DHT22;26309;50.924;4.754;2023-10-19T03:49:27;16.10;99.90
40600;DHT22;26309;50.924;4.754;2023-10-19T03:51:56;16.10;99.90
40600;DHT22;26309;50.924;4.754;2023-10-19T03:54:46;16.20;99.90
40600;DHT22;26309;50.924;4.754;2023-10-19T03:57:15;16.20;99.90
40600;DHT22;26309;50.924;4.754;2023-10-19T03:59:46;16.30;99.90
40600;DHT22;26309;50.924;4.754;2023-10-19T04:02:12;16.30;99.90
40600;DHT22;26309;50.924;4.754;2023-10-19T04:04:43;16.30;99.90
40600;DHT22;26309;50.924;4.754;2023-10-19T04:07:12;16.50;99.90
40600;DHT22;26309;50.924;4.754;2023-10-19T04:09:49;16.50;99.90
40600;DHT22;26309;50.924;4.754;2023-10-19T04:12:34;16.70;99.90
40600;DHT22;26309;50.924;4.754;2023-10-19T04:15:11;16.60;99.90
40600;DHT22;26309;50.924;4.754;2023-10-19T04:17:44;16.60;99.90
40600;DHT22;26309;50.924;4.754;2023-10-19T04:20:12;16.60;99.90
40600;DHT22;26309;50.924;4.754;2023-10-19T04:22:50;16.70;99.90
40600;DHT22;26309;50.924;4.754;2023-10-19T04:25:18;16.60;99.90
40600;DHT22;26309;50.924;4.754;2023-10-19T04:27:51;16.60;99.90
40600;DHT22;26309;50.924;4.754;2023-10-19T04:30:18;16.60;99.90
40600;DHT22;26309;50.924;4.754;2023-10-19T04:32:51;16.60;99.90
40600;DHT22;26309;50.924;4.754;2023-10-19T04:35:19;16.60;99.90
40600;DHT22;26309;50.924;4.754;2023-10-19T04:37:52;16.60;99.90
40600;DHT22;26309;50.924;4.754;2023-10-19T04:40:22;16.70;99.90
40600;DHT22;26309;50.924;4.754;2023-10-19T04:42:52;16.60;99.90
40600;DHT22;26309;50.924;4.754;2023-10-19T04:45:19;16.60;99.90
40600;DHT22;26309;50.924;4.754;2023-10-19T04:47:45;16.70;99.90
40600;DHT22;26309;50.924;4.754;2023-10-19T04:50:13;16.80;99.90
40600;DHT22;26309;50.924;4.754;2023-10-19T04:52:39;16.70;99.90
40600;DHT22;26309;50.924;4.754;2023-10-19T04:55:05;16.70;99.90
40600;DHT22;26309;50.924;4.754;2023-10-19T04:57:31;16.70;99.90
40600;DHT22;26309;50.924;4.754;2023-10-19T04:59:57;16.80;99.90
40600;DHT22;26309;50.924;4.754;2023-10-19T05:02:24;16.80;99.90
40600;DHT22;26309;50.924;4.754;2023-10-19T05:04:50;16.70;99.90
40600;DHT22;26309;50.924;4.754;2023-10-19T05:07:15;16.70;99.90
40600;DHT22;26309;50.924;4.754;2023-10-19T05:09:45;16.70;99.90
40600;DHT22;26309;50.924;4.754;2023-10-19T05:12:13;16.70;99.90
40600;DHT22;26309;50.924;4.754;2023-10-19T05:14:40;16.70;99.90
40600;DHT22;26309;50.924;4.754;2023-10-19T05:17:07;16.70;99.90
40600;DHT22;26309;50.924;4.754;2023-10-19T05:19:38;16.80;99.90
40600;DHT22;26309;50.924;4.754;2023-10-19T05:22:06;16.90;99.90
40600;DHT22;26309;50.924;4.754;2023-10-19T05:24:32;16.90;99.90
40600;DHT22;26309;50.924;4.754;2023-10-19T05:26:58;16.80;99.90
40600;DHT22;26309;50.924;4.754;2023-10-19T05:29:24;16.80;99.90
40600;DHT22;26309;50.924;4.754;2023-10-19T05:31:51;16.90;99.90
40600;DHT22;26309;50.924;4.754;2023-10-19T05:34:20;16.80;99.90
40600;DHT22;26309;50.924;4.754;2023-10-19T05:36:46;16.90;99.90
40600;DHT22;26309;50.924;4.754;2023-10-19T05:39:17;16.90;99.90
40600;DHT22;26309;50.924;4.754;2023-10-19T05:41:44;16.90;99.90
40600;DHT22;26309;50.924;4.754;2023-10-19T05:44:10;16.90;99.90
40600;DHT22;26309;50.924;4.754;2023-10-19T05:46:36;16.80;99.90
40600;DHT22;26309;50.924;4.754;2023-10-19T05:49:02;16.80;99.90
40600;DHT22;26309;50.924;4.754;2023-10-19T05:51:30;16.90;99.90
40600;DHT22;26309;50.924;4.754;2023-10-19T05:53:56;16.80;99.90
40600;DHT22;26309;50.924;4.754;2023-10-19T05:56:30;16.80;99.90
40600;DHT22;26309;50.924;4.754;2023-10-19T05:58:57;16.80;99.90
40600;DHT22;26309;50.924;4.754;2023-10-19T06:01:24;16.80;99.90
40600;DHT22;26309;50.924;4.754;2023-10-19T06:03:49;16.80;99.90
40600;DHT22;26309;50.924;4.754;2023-10-19T06:06:16;16.70;99.90
40600;DHT22;26309;50.924;4.754;2023-10-19T06:08:42;16.80;99.90
40600;DHT22;26309;50.924;4.754;2023-10-19T06:11:08;16.80;99.90
40600;DHT22;26309;50.924;4.754;2023-10-19T06:13:34;16.80;99.90
40600;DHT22;26309;50.924;4.754;2023-10-19T06:16:00;16.90;99.90
40600;DHT22;26309;50.924;4.754;2023-10-19T06:18:26;16.90;99.90
40600;DHT22;26309;50.924;4.754;2023-10-19T06:20:53;16.90;99.90
40600;DHT22;26309;50.924;4.754;2023-10-19T06:23:20;16.90;99.90
40600;DHT22;26309;50.924;4.754;2023-10-19T06:25:46;16.90;99.90
40600;DHT22;26309;50.924;4.754;2023-10-19T06:28:12;16.90;99.90
40600;DHT22;26309;50.924;4.754;2023-10-19T06:30:39;16.90;99.90
40600;DHT22;26309;50.924;4.754;2023-10-19T06:33:06;16.90;99.90
40600;DHT22;26309;50.924;4.754;2023-10-19T06:35:33;17.00;99.90
40600;DHT22;26309;50.924;4.754;2023-10-19T06:38:00;16.90;99.90
40600;DHT22;26309;50.924;4.754;2023-10-19T06:40:27;16.90;99.90
40600;DHT22;26309;50.924;4.754;2023-10-19T06:42:57;17.00;99.90
40600;DHT22;26309;50.924;4.754;2023-10-19T06:45:23;17.00;99.90
40600;DHT22;26309;50.924;4.754;2023-10-19T06:47:51;16.90;99.90
40600;DHT22;26309;50.924;4.754;2023-10-19T06:50:19;17.00;99.90
40600;DHT22;26309;50.924;4.754;2023-10-19T06:52:46;17.00;99.90
40600;DHT22;26309;50.924;4.754;2023-10-19T06:55:14;17.00;99.90
40600;DHT22;26309;50.924;4.754;2023-10-19T06:57:52;16.80;99.90
40600;DHT22;26309;50.924;4.754;2023-10-19T07:00:21;16.80;99.90
40600;DHT22;26309;50.924;4.754;2023-10-19T07:02:50;16.80;99.90
40600;DHT22;26309;50.924;4.754;2023-10-19T07:05:17;16.80;99.90
40600;DHT22;26309;50.924;4.754;2023-10-19T07:07:45;16.80;99.90
40600;DHT22;26309;50.924;4.754;2023-10-19T07:10:13;16.70;99.90
40600;DHT22;26309;50.924;4.754;2023-10-19T07:12:41;16.70;99.90
40600;DHT22;26309;50.924;4.754;2023-10-19T07:15:08;16.80;99.90
40600;DHT22;26309;50.924;4.754;2023-10-19T07:17:37;16.90;99.90
40600;DHT22;26309;50.924;4.754;2023-10-19T07:20:05;16.90;99.90
40600;DHT22;26309;50.924;4.754;2023-10-19T07:22:35;17.00;99.90
40600;DHT22;26309;50.924;4.754;2023-10-19T07:25:08;17.10;99.90
40600;DHT22;26309;50.924;4.754;2023-10-19T07:27:35;17.20;99.90
40600;DHT22;26309;50.924;4.754;2023-10-19T07:30:01;17.30;99.90
40600;DHT22;26309;50.924;4.754;2023-10-19T07:32:31;17.40;99.90
40600;DHT22;26309;50.924;4.754;2023-10-19T07:34:58;17.30;99.90
40600;DHT22;26309;50.924;4.754;2023-10-19T07:37:24;17.30;99.90
40600;DHT22;26309;50.924;4.754;2023-10-19T07:39:50;17.40;99.90
40600;DHT22;26309;50.924;4.754;2023-10-19T07:42:18;17.50;99.90
40600;DHT22;26309;50.924;4.754;2023-10-19T07:44:44;17.50;99.90
40600;DHT22;26309;50.924;4.754;2023-10-19T07:47:12;17.50;99.90
40600;DHT22;26309;50.924;4.754;2023-10-19T07:49:38;17.50;99.90
40600;DHT22;26309;50.924;4.754;2023-10-19T07:52:05;17.50;99.90
40600;DHT22;26309;50.924;4.754;2023-10-19T07:54:34;17.50;99.90
40600;DHT22;26309;50.924;4.754;2023-10-19T07:57:01;17.60;99.90
40600;DHT22;26309;50.924;4.754;2023-10-19T07:59:32;17.70;99.90
40600;DHT22;26309;50.924;4.754;2023-10-19T08:01:58;17.80;99.90
40600;DHT22;26309;50.924;4.754;2023-10-19T08:04:31;17.90;99.90
40600;DHT22;26309;50.924;4.754;2023-10-19T08:06:57;18.00;99.90
40600;DHT22;26309;50.924;4.754;2023-10-19T08:09:24;18.10;99.90
40600;DHT22;26309;50.924;4.754;2023-10-19T08:11:52;18.30;99.90
40600;DHT22;26309;50.924;4.754;2023-10-19T08:14:27;18.40;99.90
40600;DHT22;26309;50.924;4.754;2023-10-19T08:16:53;18.60;99.90
40600;DHT22;26309;50.924;4.754;2023-10-19T08:19:20;18.60;99.90
40600;DHT22;26309;50.924;4.754;2023-10-19T08:21:46;18.70;99.90
40600;DHT22;26309;50.924;4.754;2023-10-19T08:24:12;18.70;99.90
40600;DHT22;26309;50.924;4.754;2023-10-19T08:26:44;18.80;99.90
40600;DHT22;26309;50.924;4.754;2023-10-19T08:29:11;18.80;99.90
40600;DHT22;26309;50.924;4.754;2023-10-19T08:31:44;18.80;99.90
40600;DHT22;26309;50.924;4.754;2023-10-19T08:34:11;18.80;99.90
40600;DHT22;26309;50.924;4.754;2023-10-19T08:36:37;18.80;99.90
40600;DHT22;26309;50.924;4.754;2023-10-19T08:39:08;18.70;99.90
40600;DHT22;26309;50.924;4.754;2023-10-19T08:41:35;18.70;99.90
40600;DHT22;26309;50.924;4.754;2023-10-19T08:44:06;18.70;99.90
40600;DHT22;26309;50.924;4.754;2023-10-19T08:46:42;18.70;99.90
40600;DHT22;26309;50.924;4.754;2023-10-19T08:49:12;18.80;99.90
40600;DHT22;26309;50.924;4.754;2023-10-19T08:51:39;18.80;99.90
40600;DHT22;26309;50.924;4.754;2023-10-19T08:54:06;18.80;99.90
40600;DHT22;26309;50.924;4.754;2023-10-19T08:56:32;18.90;99.90
40600;DHT22;26309;50.924;4.754;2023-10-19T08:59:00;18.90;99.90
40600;DHT22;26309;50.924;4.754;2023-10-19T09:01:28;18.90;99.90
40600;DHT22;26309;50.924;4.754;2023-10-19T09:03:57;19.00;99.90
40600;DHT22;26309;50.924;4.754;2023-10-19T09:06:24;18.90;99.90
40600;DHT22;26309;50.924;4.754;2023-10-19T09:08:50;19.00;99.90
40600;DHT22;26309;50.924;4.754;2023-10-19T09:11:16;19.00;99.90
40600;DHT22;26309;50.924;4.754;2023-10-19T09:13:48;18.90;99.90
40600;DHT22;26309;50.924;4.754;2023-10-19T09:16:24;18.90;99.90
40600;DHT22;26309;50.924;4.754;2023-10-19T09:18:52;19.00;99.90
40600;DHT22;26309;50.924;4.754;2023-10-19T09:21:19;19.10;99.90
40600;DHT22;26309;50.924;4.754;2023-10-19T09:23:55;19.00;99.90
40600;DHT22;26309;50.924;4.754;2023-10-19T09:26:23;19.00;99.90
40600;DHT22;26309;50.924;4.754;2023-10-19T09:28:53;19.00;99.90
40600;DHT22;26309;50.924;4.754;2023-10-19T09:31:19;19.10;99.90
40600;DHT22;26309;50.924;4.754;2023-10-19T09:33:47;19.20;99.90
40600;DHT22;26309;50.924;4.754;2023-10-19T09:36:18;19.30;99.90
40600;DHT22;26309;50.924;4.754;2023-10-19T09:38:50;19.40;99.90
40600;DHT22;26309;50.924;4.754;2023-10-19T09:41:21;19.50;99.90
40600;DHT22;26309;50.924;4.754;2023-10-19T09:43:49;19.60;99.90
40600;DHT22;26309;50.924;4.754;2023-10-19T09:46:23;19.60;99.90
40600;DHT22;26309;50.924;4.754;2023-10-19T09:48:49;19.60;99.90
40600;DHT22;26309;50.924;4.754;2023-10-19T09:51:17;19.60;99.90
40600;DHT22;26309;50.924;4.754;2023-10-19T09:56:41;19.50;99.90
40600;DHT22;26309;50.924;4.754;2023-10-19T09:59:37;19.60;99.90
40600;DHT22;26309;50.924;4.754;2023-10-19T10:04:34;19.60;99.90
40600;DHT22;26309;50.924;4.754;2023-10-19T10:07:01;19.70;99.90
40600;DHT22;26309;50.924;4.754;2023-10-19T10:09:29;19.60;99.90
40600;DHT22;26309;50.924;4.754;2023-10-19T10:11:56;19.60;99.90
40600;DHT22;26309;50.924;4.754;2023-10-19T10:14:23;19.70;99.90
40600;DHT22;26309;50.924;4.754;2023-10-19T10:17:04;19.70;99.90
40600;DHT22;26309;50.924;4.754;2023-10-19T10:19:36;19.70;99.90
40600;DHT22;26309;50.924;4.754;2023-10-19T10:22:11;19.60;99.90
40600;DHT22;26309;50.924;4.754;2023-10-19T10:24:44;19.60;99.90
40600;DHT22;26309;50.924;4.754;2023-10-19T10:27:10;19.70;99.90
40600;DHT22;26309;50.924;4.754;2023-10-19T10:30:00;19.70;99.90
40600;DHT22;26309;50.924;4.754;2023-10-19T10:32:48;19.80;99.90
40600;DHT22;26309;50.924;4.754;2023-10-19T10:38:03;19.80;99.90
40600;DHT22;26309;50.924;4.754;2023-10-19T10:40:41;19.90;99.90
40600;DHT22;26309;50.924;4.754;2023-10-19T10:43:07;20.00;99.90
40600;DHT22;26309;50.924;4.754;2023-10-19T10:45:33;20.00;99.90
40600;DHT22;26309;50.924;4.754;2023-10-19T10:47:59;20.10;99.90
40600;DHT22;26309;50.924;4.754;2023-10-19T10:50:29;20.10;99.90
40600;DHT22;26309;50.924;4.754;2023-10-19T10:52:56;20.30;99.90
40600;DHT22;26309;50.924;4.754;2023-10-19T10:55:25;20.40;99.90
40600;DHT22;26309;50.924;4.754;2023-10-19T10:57:51;20.30;99.90
40600;DHT22;26309;50.924;4.754;2023-10-19T11:00:17;20.30;99.90
40600;DHT22;26309;50.924;4.754;2023-10-19T11:02:46;20.20;99.90
40600;DHT22;26309;50.924;4.754;2023-10-19T11:05:13;20.20;99.90
40600;DHT22;26309;50.924;4.754;2023-10-19T11:07:40;20.20;99.90
40600;DHT22;26309;50.924;4.754;2023-10-19T11:10:08;20.10;99.90
40600;DHT22;26309;50.924;4.754;2023-10-19T11:12:36;20.10;99.90
40600;DHT22;26309;50.924;4.754;2023-10-19T11:15:03;20.00;99.90
40600;DHT22;26309;50.924;4.754;2023-10-19T11:17:43;20.00;99.90
40600;DHT22;26309;50.924;4.754;2023-10-19T11:20:20;20.00;99.90
40600;DHT22;26309;50.924;4.754;2023-10-19T11:22:50;20.00;99.90
40600;DHT22;26309;50.924;4.754;2023-10-19T11:25:20;20.00;99.90
40600;DHT22;26309;50.924;4.754;2023-10-19T11:27:46;20.00;99.90
40600;DHT22;26309;50.924;4.754;2023-10-19T11:30:29;19.80;99.90
40600;DHT22;26309;50.924;4.754;2023-10-19T11:32:57;19.80;99.90
40600;DHT22;26309;50.924;4.754;2023-10-19T11:35:27;19.70;99.90
40600;DHT22;26309;50.924;4.754;2023-10-19T11:37:56;19.60;99.90
40600;DHT22;26309;50.924;4.754;2023-10-19T11:40:23;19.50;99.90
40600;DHT22;26309;50.924;4.754;2023-10-19T11:42:52;19.50;99.90
40600;DHT22;26309;50.924;4.754;2023-10-19T11:45:22;19.50;99.90
40600;DHT22;26309;50.924;4.754;2023-10-19T11:47:52;19.40;99.90
40600;DHT22;26309;50.924;4.754;2023-10-19T11:50:18;19.40;99.90
40600;DHT22;26309;50.924;4.754;2023-10-19T11:52:45;19.50;99.90
40600;DHT22;26309;50.924;4.754;2023-10-19T11:55:15;19.50;99.90
40600;DHT22;26309;50.924;4.754;2023-10-19T11:57:44;19.40;99.90
40600;DHT22;26309;50.924;4.754;2023-10-19T12:00:13;19.50;99.90
40600;DHT22;26309;50.924;4.754;2023-10-19T12:02:45;19.50;99.90
40600;DHT22;26309;50.924;4.754;2023-10-19T12:05:11;19.40;99.90
40600;DHT22;26309;50.924;4.754;2023-10-19T12:07:37;19.50;99.90
40600;DHT22;26309;50.924;4.754;2023-10-19T12:10:07;19.40;99.90
40600;DHT22;26309;50.924;4.754;2023-10-19T12:12:36;19.40;99.90
40600;DHT22;26309;50.924;4.754;2023-10-19T12:15:06;19.30;99.90
40600;DHT22;26309;50.924;4.754;2023-10-19T12:17:33;19.30;99.90
40600;DHT22;26309;50.924;4.754;2023-10-19T12:19:58;19.20;99.90
40600;DHT22;26309;50.924;4.754;2023-10-19T12:22:24;19.10;99.90
40600;DHT22;26309;50.924;4.754;2023-10-19T12:24:57;19.10;99.90
40600;DHT22;26309;50.924;4.754;2023-10-19T12:27:23;19.10;99.90
40600;DHT22;26309;50.924;4.754;2023-10-19T12:29:54;19.10;99.90
40600;DHT22;26309;50.924;4.754;2023-10-19T12:32:20;19.10;99.90
40600;DHT22;26309;50.924;4.754;2023-10-19T12:34:47;19.00;99.90
40600;DHT22;26309;50.924;4.754;2023-10-19T12:37:19;18.90;99.90
40600;DHT22;26309;50.924;4.754;2023-10-19T12:39:45;18.80;99.90
40600;DHT22;26309;50.924;4.754;2023-10-19T12:42:14;18.90;99.90
40600;DHT22;26309;50.924;4.754;2023-10-19T12:44:41;18.80;99.90
40600;DHT22;26309;50.924;4.754;2023-10-19T12:47:11;18.70;99.90
40600;DHT22;26309;50.924;4.754;2023-10-19T12:49:41;18.70;99.90
40600;DHT22;26309;50.924;4.754;2023-10-19T12:52:08;18.70;99.90
40600;DHT22;26309;50.924;4.754;2023-10-19T12:54:37;18.90;99.90
40600;DHT22;26309;50.924;4.754;2023-10-19T12:57:06;19.00;99.90
40600;DHT22;26309;50.924;4.754;2023-10-19T12:59:36;19.10;99.90
40600;DHT22;26309;50.924;4.754;2023-10-19T13:02:05;19.40;99.90
40600;DHT22;26309;50.924;4.754;2023-10-19T13:04:34;19.60;99.90
40600;DHT22;26309;50.924;4.754;2023-10-19T13:07:00;19.90;99.90
40600;DHT22;26309;50.924;4.754;2023-10-19T13:09:29;20.00;99.90
40600;DHT22;26309;50.924;4.754;2023-10-19T13:11:59;20.20;99.90
40600;DHT22;26309;50.924;4.754;2023-10-19T13:14:25;20.30;99.90
40600;DHT22;26309;50.924;4.754;2023-10-19T13:16:52;20.40;99.90
40600;DHT22;26309;50.924;4.754;2023-10-19T13:19:20;20.30;99.90
40600;DHT22;26309;50.924;4.754;2023-10-19T13:21:52;20.30;99.90
40600;DHT22;26309;50.924;4.754;2023-10-19T13:24:19;20.40;99.90
40600;DHT22;26309;50.924;4.754;2023-10-19T13:26:50;20.50;99.90
40600;DHT22;26309;50.924;4.754;2023-10-19T13:29:19;20.50;99.90
40600;DHT22;26309;50.924;4.754;2023-10-19T13:31:45;20.40;99.90
40600;DHT22;26309;50.924;4.754;2023-10-19T13:34:15;20.30;99.90
40600;DHT22;26309;50.924;4.754;2023-10-19T13:36:41;20.30;99.90
40600;DHT22;26309;50.924;4.754;2023-10-19T13:39:10;20.30;99.90
40600;DHT22;26309;50.924;4.754;2023-10-19T13:41:39;20.10;99.90
40600;DHT22;26309;50.924;4.754;2023-10-19T13:44:05;20.00;99.90
40600;DHT22;26309;50.924;4.754;2023-10-19T13:46:31;20.00;99.90
40600;DHT22;26309;50.924;4.754;2023-10-19T13:48:57;20.10;99.90
40600;DHT22;26309;50.924;4.754;2023-10-19T13:51:24;20.10;99.90
40600;DHT22;26309;50.924;4.754;2023-10-19T13:53:51;20.00;99.90
40600;DHT22;26309;50.924;4.754;2023-10-19T13:56:17;20.10;99.90
40600;DHT22;26309;50.924;4.754;2023-10-19T13:58:42;20.00;99.90
40600;DHT22;26309;50.924;4.754;2023-10-19T14:01:09;19.90;99.90
40600;DHT22;26309;50.924;4.754;2023-10-19T14:03:36;19.90;99.90
40600;DHT22;26309;50.924;4.754;2023-10-19T14:06:03;19.90;99.90
40600;DHT22;26309;50.924;4.754;2023-10-19T14:08:29;20.00;99.90
40600;DHT22;26309;50.924;4.754;2023-10-19T14:11:03;19.80;99.90
40600;DHT22;26309;50.924;4.754;2023-10-19T14:13:29;19.70;99.90
40600;DHT22;26309;50.924;4.754;2023-10-19T14:15:55;19.70;99.90
40600;DHT22;26309;50.924;4.754;2023-10-19T14:18:21;19.70;99.90
40600;DHT22;26309;50.924;4.754;2023-10-19T14:20:47;19.60;99.90
40600;DHT22;26309;50.924;4.754;2023-10-19T14:23:13;19.60;99.90
40600;DHT22;26309;50.924;4.754;2023-10-19T14:25:39;19.60;99.90
40600;DHT22;26309;50.924;4.754;2023-10-19T14:28:07;19.50;99.90
40600;DHT22;26309;50.924;4.754;2023-10-19T14:30:34;19.50;99.90
40600;DHT22;26309;50.924;4.754;2023-10-19T14:33:00;19.50;99.90
40600;DHT22;26309;50.924;4.754;2023-10-19T14:35:26;19.60;99.90
40600;DHT22;26309;50.924;4.754;2023-10-19T14:37:53;19.80;99.90
40600;DHT22;26309;50.924;4.754;2023-10-19T14:40:27;19.90;99.90
40600;DHT22;26309;50.924;4.754;2023-10-19T14:42:54;20.10;99.90
40600;DHT22;26309;50.924;4.754;2023-10-19T14:45:21;20.10;99.90
40600;DHT22;26309;50.924;4.754;2023-10-19T14:47:52;20.10;99.90
40600;DHT22;26309;50.924;4.754;2023-10-19T14:50:20;20.20;99.90
40600;DHT22;26309;50.924;4.754;2023-10-19T14:52:50;20.10;99.90
40600;DHT22;26309;50.924;4.754;2023-10-19T14:55:23;20.00;99.90
40600;DHT22;26309;50.924;4.754;2023-10-19T14:57:51;20.00;99.90
40600;DHT22;26309;50.924;4.754;2023-10-19T15:00:23;20.10;99.90
40600;DHT22;26309;50.924;4.754;2023-10-19T15:03:00;20.00;99.90
40600;DHT22;26309;50.924;4.754;2023-10-19T15:05:28;20.00;99.90
40600;DHT22;26309;50.924;4.754;2023-10-19T15:07:54;20.00;99.90
40600;DHT22;26309;50.924;4.754;2023-10-19T15:10:23;20.00;99.90
40600;DHT22;26309;50.924;4.754;2023-10-19T15:12:51;20.00;99.90
40600;DHT22;26309;50.924;4.754;2023-10-19T15:15:17;20.00;99.90
40600;DHT22;26309;50.924;4.754;2023-10-19T15:17:44;19.90;99.90
40600;DHT22;26309;50.924;4.754;2023-10-19T15:20:11;19.80;99.90
40600;DHT22;26309;50.924;4.754;2023-10-19T15:22:38;19.70;99.90
40600;DHT22;26309;50.924;4.754;2023-10-19T15:25:05;19.70;99.90
40600;DHT22;26309;50.924;4.754;2023-10-19T15:27:38;19.70;99.90
40600;DHT22;26309;50.924;4.754;2023-10-19T15:30:06;19.60;99.90
40600;DHT22;26309;50.924;4.754;2023-10-19T15:32:32;19.60;99.90
40600;DHT22;26309;50.924;4.754;2023-10-19T15:34:59;19.60;99.90
40600;DHT22;26309;50.924;4.754;2023-10-19T15:37:25;19.70;99.90
40600;DHT22;26309;50.924;4.754;2023-10-19T15:39:51;19.70;99.90
40600;DHT22;26309;50.924;4.754;2023-10-19T15:42:18;19.70;99.90
40600;DHT22;26309;50.924;4.754;2023-10-19T15:44:44;19.70;99.90
40600;DHT22;26309;50.924;4.754;2023-10-19T15:47:11;19.80;99.90
40600;DHT22;26309;50.924;4.754;2023-10-19T15:49:51;19.70;99.90
40600;DHT22;26309;50.924;4.754;2023-10-19T15:52:23;19.80;99.90